Aeroporto :
LOGIN :

Iscrizione | Disclaimer

   EN    FR    IT 

 










Sommario :    VFR   VFR Marginale   IFR   IFR Intensivo   IFR Molto Intensivo
Visibilità : 
Base nubi : 
>= 8 km
>= 3000ft
5 / 8 km
1000 / 3000 ft
1500m / 5 km
500 / 1000 ft
800 / 1500m
200 / 500 ft
< 800m
< 200 ft
Simboli :   Temporali  Nebbia  Neve Forte  Precipitazioni Forti  Vento > 20 kt
SIGMETs :   Varie  Temporali  Ghiacco  Turbolenza  Onda orograficha  Ceneri Vulcaniche







- Altitudine del aeroporto : 390 ft
- Codice IATA : NQY
- Carte del aeroporto


EGHQ - Newquay

ULTIMO METAR :
  • 230920Z 22005KT 9999 BKN023 18/16 Q1018

METARs OBSOLETI :
  • 230850Z 23006KT 9999 BKN010 18/16 Q1018
  • 230820Z 19005KT 9999 BKN006 17/16 Q1018
  • 230750Z 20006KT 170V230 9000 -DZ BKN008 17/15 Q1018
  • 230720Z 20006KT 9999 BKN008 17/15 Q1018
  • 230650Z 22005KT 9999 BKN008 17/15 Q1018

TAF TAF EGHQ
Valido dal 23 a 09 ore il 23 a 18 ore UTC


230758Z 2309/2318 24007KT 9999 FEW045
PROB30
TEMPO 2309/2311 9000 BKN012
Nessun NOTAM noto per questo aeroporto.



MetMap, La meteo Aeronautica in un colpo d'occhio ! - Copyright ORBIFLY Dicembre 2007 - Disclaimer

ORBIFLY MET'MAP TEAM :

Programmazione e sviluppo : Alexandra Zaïnal
Concezione e sviluppo : Baudouin d'Aumeries
Co-Programmazione e sviluppo : Marc-Olivier Méhu
Supporto tecnico e logistico : Manuel Goepfert
Aiuto per la traduzione : Arnaldo La Scala

Contatto : metmap@orbifly.com




FONTI E CREDITI :

   NOAA